Eiwamaru — JG5742 — position and weather

sailwx.info

Track history (hours):
 
Tides and Currents Weather Stations Pressure Air Temp Water Temp Dewpoint Dewpoint Depression Visibility Wind Speed Wind Dir Waves Ship Positions

Eiwamaru

Last reported at 2015-May-29 08:17 UTC. Time now 2015-May-30 00:27 UTC.
Position N 35°02' E 138°30'.

Length 80 m; draft 5.4 m.

Type: Tanker. MMSI: 431101045.

Date/timePositionNaut miles runAvg speedWind from/ knotsBaromVisibWave heightAir tempDewpointWater temp
2015-May-29 08:17N 35°02' E 138°30'182 6.5
2015-May-28 04:19N 34°02' E 135°02'7 9.5
2015-May-28 03:33N 34°07' E 135°07'1 0.6
2015-May-28 02:33N 34°07' E 135°07'0 0.0
2015-May-28 01:31N 34°07' E 135°07'0 0.0
2015-May-28 00:33N 34°07' E 135°07'0 0.0
2015-May-27 23:33N 34°07' E 135°07'0 0.0
2015-May-27 22:33N 34°07' E 135°07'0 0.0
2015-May-27 21:33N 34°07' E 135°07'1 1.0
2015-May-27 20:33N 34°08' E 135°07'0 0.0
2015-May-27 19:33N 34°08' E 135°07'0 0.0
2015-May-27 18:33N 34°08' E 135°07'0 0.0
2015-May-27 17:33N 34°08' E 135°07'0 0.0
2015-May-27 16:33N 34°08' E 135°07'0 0.1
2015-May-27 15:34N 34°08' E 135°07'0 0.0
2015-May-27 14:33N 34°08' E 135°07'0 0.0
2015-May-27 13:33N 34°08' E 135°07'0 0.0
2015-May-27 12:34N 34°08' E 135°07'0 0.1
2015-May-27 11:32N 34°08' E 135°07'0 0.1
2015-May-27 10:33N 34°08' E 135°07'0 0.0
2015-May-27 09:33N 34°08' E 135°07'0 0.1
2015-May-27 08:33N 34°08' E 135°07'0 0.0
2015-May-27 07:32N 34°08' E 135°07'0 0.0
2015-May-27 06:32N 34°08' E 135°07'0 0.0
2015-May-27 05:33N 34°08' E 135°07'0 0.0
2015-May-27 04:33N 34°08' E 135°07'0 0.1
2015-May-27 03:33N 34°08' E 135°07'0 0.1
2015-May-27 02:33N 34°08' E 135°07'0 0.0
2015-May-27 01:33N 34°08' E 135°07'0 0.0
2015-May-27 00:33N 34°08' E 135°07'0 0.0
2015-May-26 23:33N 34°08' E 135°07'0 0.0
2015-May-26 22:33N 34°08' E 135°07'3 3.0
2015-May-26 21:33N 34°06' E 135°04'23710.7
2015-May-25 23:31N 35°07' E 139°42'1111.8
2015-May-25 22:33N 35°18' E 139°44'1111.3
2015-May-25 21:33N 35°28' E 139°49'8 7.8
2015-May-25 20:33N 35°31' E 139°58'0 0.0
2015-May-25 19:33N 35°31' E 139°58'0 0.0
2015-May-25 18:33N 35°31' E 139°58'0 0.0
2015-May-25 17:33N 35°31' E 139°58'0 0.0
2015-May-25 16:34N 35°31' E 139°58'0 0.0
2015-May-25 15:33N 35°31' E 139°58'0 0.0
2015-May-25 14:33N 35°31' E 139°58'2 1.9
2015-May-25 13:34N 35°31' E 140°00'2 1.6
2015-May-25 12:33N 35°31' E 140°02'0 0.0
2015-May-25 11:33N 35°31' E 140°02'0 0.0
2015-May-25 10:34N 35°31' E 140°02'2 1.8
2015-May-25 09:33N 35°32' E 140°01'0 0.0
2015-May-25 08:33N 35°32' E 140°01'0 0.0
2015-May-25 07:33N 35°32' E 140°01'0 0.0
2015-May-25 06:32N 35°32' E 140°01'0 0.0
2015-May-25 05:32N 35°32' E 140°01'0 0.0
2015-May-25 04:33N 35°32' E 140°01'0 0.0
2015-May-25 03:32N 35°32' E 140°01'0 0.0
2015-May-25 02:33N 35°32' E 140°01'0 0.0
2015-May-25 01:33N 35°32' E 140°01'0 0.0
2015-May-25 00:33N 35°32' E 140°01'0 0.0
2015-May-24 23:33N 35°32' E 140°01'0 0.0
2015-May-24 22:33N 35°32' E 140°01'0 0.0
2015-May-24 21:34N 35°32' E 140°01'0 0.0
2015-May-24 20:33N 35°32' E 140°01'0 0.0
2015-May-24 19:34N 35°32' E 140°01'0 0.0
2015-May-24 18:33N 35°32' E 140°01'0 0.0
2015-May-24 17:33N 35°32' E 140°01'0 0.0
2015-May-24 16:33N 35°32' E 140°01'0 0.0
2015-May-24 15:34N 35°32' E 140°01'0 0.0
2015-May-24 14:33N 35°32' E 140°01'0 0.0
2015-May-24 13:33N 35°32' E 140°01'0 0.0
2015-May-24 12:32N 35°32' E 140°01'0 0.0
2015-May-24 11:33N 35°32' E 140°01'0 0.0
2015-May-24 10:33N 35°32' E 140°01'0 0.0
2015-May-24 09:33N 35°32' E 140°01'0 0.0
2015-May-24 08:33N 35°32' E 140°01'0 0.0
2015-May-24 07:33N 35°32' E 140°01'0 0.0
2015-May-24 06:32N 35°32' E 140°01'0 0.0
2015-May-24 05:33N 35°32' E 140°01'0 0.0
2015-May-24 04:33N 35°32' E 140°01'0 0.0
2015-May-24 03:33N 35°32' E 140°01'1 1.0
2015-May-24 02:33N 35°32' E 140°03'1 0.7
2015-May-24 01:33N 35°32' E 140°03'0 0.0
2015-May-24 00:32N 35°32' E 140°03'0 0.1
2015-May-23 23:33N 35°32' E 140°03'2 1.8
2015-May-23 22:33N 35°32' E 140°01'0 0.0
2015-May-23 21:34N 35°32' E 140°01'5 5.3
2015-May-23 20:33N 35°36' E 140°06'0 0.0
2015-May-23 19:33N 35°36' E 140°06'0 0.0
2015-May-23 18:33N 35°36' E 140°06'0 0.0
2015-May-23 17:32N 35°36' E 140°06'0 0.0
2015-May-23 16:33N 35°36' E 140°06'0 0.0
2015-May-23 15:33N 35°36' E 140°06'0 0.0
2015-May-23 14:33N 35°36' E 140°06'0 0.0
2015-May-23 13:33N 35°36' E 140°06'0 0.0
2015-May-23 12:33N 35°36' E 140°06'0 0.0
2015-May-23 11:33N 35°36' E 140°06'0 0.0
2015-May-23 10:33N 35°36' E 140°06'0 0.0
2015-May-23 09:33N 35°36' E 140°06'0 0.0
2015-May-23 08:33N 35°36' E 140°06'0 0.0
2015-May-23 07:34N 35°36' E 140°06'0 0.0
2015-May-23 06:33N 35°36' E 140°06'0 0.0
2015-May-23 05:33N 35°36' E 140°06'0 0.0
2015-May-23 04:33N 35°36' E 140°06'0 0.0
2015-May-23 03:34N 35°36' E 140°06'0 0.0
2015-May-23 02:34N 35°36' E 140°06'0 0.0
2015-May-23 01:33N 35°36' E 140°06'0 0.0
2015-May-23 00:33N 35°36' E 140°06'0 0.0
2015-May-22 23:33N 35°36' E 140°06'2 2.2
2015-May-22 22:33N 35°35' E 140°04'3 3.0
2015-May-22 21:33N 35°33' E 140°01'0 0.0
2015-May-22 20:33N 35°33' E 140°01'0 0.0
2015-May-22 19:33N 35°33' E 140°01'0 0.0
2015-May-22 18:33N 35°33' E 140°01'0 0.0
2015-May-22 17:33N 35°33' E 140°01'0 0.0
2015-May-22 16:33N 35°33' E 140°01'0 0.0
2015-May-22 15:33N 35°33' E 140°01'0 0.0
2015-May-22 14:33N 35°33' E 140°01'2 2.1
2015-May-22 13:34N 35°31' E 140°02'0 0.1
2015-May-22 12:33N 35°31' E 140°02'0 0.0
2015-May-22 11:33N 35°31' E 140°02'0 0.0
2015-May-22 10:34N 35°31' E 140°02'0 0.0
2015-May-22 09:33N 35°31' E 140°02'0 0.0
2015-May-22 08:34N 35°31' E 140°02'1 1.0
2015-May-22 07:33N 35°31' E 140°01'1 0.9
2015-May-22 06:33N 35°32' E 140°01'0 0.0
2015-May-22 05:34N 35°32' E 140°01'0 0.0
2015-May-22 04:33N 35°32' E 140°01'1 1.5
2015-May-22 03:34N 35°32' E 140°03'0 0.1
2015-May-22 02:34N 35°32' E 140°03'0 0.0
2015-May-22 01:34N 35°32' E 140°03'0 0.0
2015-May-22 00:34N 35°32' E 140°03'1 1.3
2015-May-21 23:33N 35°32' E 140°02'1 0.8
2015-May-21 22:34N 35°33' E 140°01'0 0.0
2015-May-21 21:34N 35°33' E 140°01'0 0.0
2015-May-21 20:34N 35°33' E 140°01'0 0.0
2015-May-21 19:33N 35°33' E 140°01'0 0.0
2015-May-21 18:34N 35°33' E 140°01'0 0.0
2015-May-21 17:32N 35°33' E 140°01'0 0.0
2015-May-21 16:34N 35°33' E 140°01'0 0.0
2015-May-21 15:34N 35°33' E 140°01'0 0.0
2015-May-21 14:33N 35°33' E 140°01'0 0.0
2015-May-21 13:33N 35°33' E 140°01'0 0.0
2015-May-21 12:34N 35°33' E 140°01'0 0.0
2015-May-21 11:33N 35°33' E 140°01'0 0.0
2015-May-21 10:32N 35°33' E 140°01'8 8.5
2015-May-21 09:33N 35°29' E 139°52'1212.2
2015-May-21 08:33N 35°18' E 139°45'1212.4
2015-May-21 07:33N 35°06' E 139°45'3213.8
2015-May-21 05:13N 34°46' E 139°14'  
Track history (hours):
 
Tides and Currents Weather Stations Pressure Air Temp Water Temp Dewpoint Dewpoint Depression Visibility Wind Speed Wind Dir Waves Ship Positions

Eiwamaru

Last reported at 2015-May-29 08:17 UTC. Time now 2015-May-30 00:27 UTC.
Position N 35°02' E 138°30'.

Length 80 m; draft 5.4 m.

Type: Tanker. MMSI: 431101045.

Date/timePositionNaut miles runAvg speedWind from/ knotsBaromVisibWave heightAir tempDewpointWater temp
2015-May-29 08:17N 35°02' E 138°30'182 6.5
2015-May-28 04:19N 34°02' E 135°02'7 9.5
2015-May-28 03:33N 34°07' E 135°07'1 0.6
2015-May-28 02:33N 34°07' E 135°07'0 0.0
2015-May-28 01:31N 34°07' E 135°07'0 0.0
2015-May-28 00:33N 34°07' E 135°07'0 0.0
2015-May-27 23:33N 34°07' E 135°07'0 0.0
2015-May-27 22:33N 34°07' E 135°07'0 0.0
2015-May-27 21:33N 34°07' E 135°07'1 1.0
2015-May-27 20:33N 34°08' E 135°07'0 0.0
2015-May-27 19:33N 34°08' E 135°07'0 0.0
2015-May-27 18:33N 34°08' E 135°07'0 0.0
2015-May-27 17:33N 34°08' E 135°07'0 0.0
2015-May-27 16:33N 34°08' E 135°07'0 0.1
2015-May-27 15:34N 34°08' E 135°07'0 0.0
2015-May-27 14:33N 34°08' E 135°07'0 0.0
2015-May-27 13:33N 34°08' E 135°07'0 0.0
2015-May-27 12:34N 34°08' E 135°07'0 0.1
2015-May-27 11:32N 34°08' E 135°07'0 0.1
2015-May-27 10:33N 34°08' E 135°07'0 0.0
2015-May-27 09:33N 34°08' E 135°07'0 0.1
2015-May-27 08:33N 34°08' E 135°07'0 0.0
2015-May-27 07:32N 34°08' E 135°07'0 0.0
2015-May-27 06:32N 34°08' E 135°07'0 0.0
2015-May-27 05:33N 34°08' E 135°07'0 0.0
2015-May-27 04:33N 34°08' E 135°07'0 0.1
2015-May-27 03:33N 34°08' E 135°07'0 0.1
2015-May-27 02:33N 34°08' E 135°07'0 0.0
2015-May-27 01:33N 34°08' E 135°07'0 0.0
2015-May-27 00:33N 34°08' E 135°07'0 0.0
2015-May-26 23:33N 34°08' E 135°07'0 0.0
2015-May-26 22:33N 34°08' E 135°07'3 3.0
2015-May-26 21:33N 34°06' E 135°04'23710.7
2015-May-25 23:31N 35°07' E 139°42'1111.8
2015-May-25 22:33N 35°18' E 139°44'1111.3
2015-May-25 21:33N 35°28' E 139°49'8 7.8
2015-May-25 20:33N 35°31' E 139°58'0 0.0
2015-May-25 19:33N 35°31' E 139°58'0 0.0
2015-May-25 18:33N 35°31' E 139°58'0 0.0
2015-May-25 17:33N 35°31' E 139°58'0 0.0
2015-May-25 16:34N 35°31' E 139°58'0 0.0
2015-May-25 15:33N 35°31' E 139°58'0 0.0
2015-May-25 14:33N 35°31' E 139°58'2 1.9
2015-May-25 13:34N 35°31' E 140°00'2 1.6
2015-May-25 12:33N 35°31' E 140°02'0 0.0
2015-May-25 11:33N 35°31' E 140°02'0 0.0
2015-May-25 10:34N 35°31' E 140°02'2 1.8
2015-May-25 09:33N 35°32' E 140°01'0 0.0
2015-May-25 08:33N 35°32' E 140°01'0 0.0
2015-May-25 07:33N 35°32' E 140°01'0 0.0
2015-May-25 06:32N 35°32' E 140°01'0 0.0
2015-May-25 05:32N 35°32' E 140°01'0 0.0
2015-May-25 04:33N 35°32' E 140°01'0 0.0
2015-May-25 03:32N 35°32' E 140°01'0 0.0
2015-May-25 02:33N 35°32' E 140°01'0 0.0
2015-May-25 01:33N 35°32' E 140°01'0 0.0
2015-May-25 00:33N 35°32' E 140°01'0 0.0
2015-May-24 23:33N 35°32' E 140°01'0 0.0
2015-May-24 22:33N 35°32' E 140°01'0 0.0
2015-May-24 21:34N 35°32' E 140°01'0 0.0
2015-May-24 20:33N 35°32' E 140°01'0 0.0
2015-May-24 19:34N 35°32' E 140°01'0 0.0
2015-May-24 18:33N 35°32' E 140°01'0 0.0
2015-May-24 17:33N 35°32' E 140°01'0 0.0
2015-May-24 16:33N 35°32' E 140°01'0 0.0
2015-May-24 15:34N 35°32' E 140°01'0 0.0
2015-May-24 14:33N 35°32' E 140°01'0 0.0
2015-May-24 13:33N 35°32' E 140°01'0 0.0
2015-May-24 12:32N 35°32' E 140°01'0 0.0
2015-May-24 11:33N 35°32' E 140°01'0 0.0
2015-May-24 10:33N 35°32' E 140°01'0 0.0
2015-May-24 09:33N 35°32' E 140°01'0 0.0
2015-May-24 08:33N 35°32' E 140°01'0 0.0
2015-May-24 07:33N 35°32' E 140°01'0 0.0
2015-May-24 06:32N 35°32' E 140°01'0 0.0
2015-May-24 05:33N 35°32' E 140°01'0 0.0
2015-May-24 04:33N 35°32' E 140°01'0 0.0
2015-May-24 03:33N 35°32' E 140°01'1 1.0
2015-May-24 02:33N 35°32' E 140°03'1 0.7
2015-May-24 01:33N 35°32' E 140°03'0 0.0
2015-May-24 00:32N 35°32' E 140°03'0 0.1
2015-May-23 23:33N 35°32' E 140°03'2 1.8
2015-May-23 22:33N 35°32' E 140°01'0 0.0
2015-May-23 21:34N 35°32' E 140°01'5 5.3
2015-May-23 20:33N 35°36' E 140°06'0 0.0
2015-May-23 19:33N 35°36' E 140°06'0 0.0
2015-May-23 18:33N 35°36' E 140°06'0 0.0
2015-May-23 17:32N 35°36' E 140°06'0 0.0
2015-May-23 16:33N 35°36' E 140°06'0 0.0
2015-May-23 15:33N 35°36' E 140°06'0 0.0
2015-May-23 14:33N 35°36' E 140°06'0 0.0
2015-May-23 13:33N 35°36' E 140°06'0 0.0
2015-May-23 12:33N 35°36' E 140°06'0 0.0
2015-May-23 11:33N 35°36' E 140°06'0 0.0
2015-May-23 10:33N 35°36' E 140°06'0 0.0
2015-May-23 09:33N 35°36' E 140°06'0 0.0
2015-May-23 08:33N 35°36' E 140°06'0 0.0
2015-May-23 07:34N 35°36' E 140°06'0 0.0
2015-May-23 06:33N 35°36' E 140°06'0 0.0
2015-May-23 05:33N 35°36' E 140°06'0 0.0
2015-May-23 04:33N 35°36' E 140°06'0 0.0
2015-May-23 03:34N 35°36' E 140°06'0 0.0
2015-May-23 02:34N 35°36' E 140°06'0 0.0
2015-May-23 01:33N 35°36' E 140°06'0 0.0
2015-May-23 00:33N 35°36' E 140°06'0 0.0
2015-May-22 23:33N 35°36' E 140°06'2 2.2
2015-May-22 22:33N 35°35' E 140°04'3 3.0
2015-May-22 21:33N 35°33' E 140°01'0 0.0
2015-May-22 20:33N 35°33' E 140°01'0 0.0
2015-May-22 19:33N 35°33' E 140°01'0 0.0
2015-May-22 18:33N 35°33' E 140°01'0 0.0
2015-May-22 17:33N 35°33' E 140°01'0 0.0
2015-May-22 16:33N 35°33' E 140°01'0 0.0
2015-May-22 15:33N 35°33' E 140°01'0 0.0
2015-May-22 14:33N 35°33' E 140°01'2 2.1
2015-May-22 13:34N 35°31' E 140°02'0 0.1
2015-May-22 12:33N 35°31' E 140°02'0 0.0
2015-May-22 11:33N 35°31' E 140°02'0 0.0
2015-May-22 10:34N 35°31' E 140°02'0 0.0
2015-May-22 09:33N 35°31' E 140°02'0 0.0
2015-May-22 08:34N 35°31' E 140°02'1 1.0
2015-May-22 07:33N 35°31' E 140°01'1 0.9
2015-May-22 06:33N 35°32' E 140°01'0 0.0
2015-May-22 05:34N 35°32' E 140°01'0 0.0
2015-May-22 04:33N 35°32' E 140°01'1 1.5
2015-May-22 03:34N 35°32' E 140°03'0 0.1
2015-May-22 02:34N 35°32' E 140°03'0 0.0
2015-May-22 01:34N 35°32' E 140°03'0 0.0
2015-May-22 00:34N 35°32' E 140°03'1 1.3
2015-May-21 23:33N 35°32' E 140°02'1 0.8
2015-May-21 22:34N 35°33' E 140°01'0 0.0
2015-May-21 21:34N 35°33' E 140°01'0 0.0
2015-May-21 20:34N 35°33' E 140°01'0 0.0
2015-May-21 19:33N 35°33' E 140°01'0 0.0
2015-May-21 18:34N 35°33' E 140°01'0 0.0
2015-May-21 17:32N 35°33' E 140°01'0 0.0
2015-May-21 16:34N 35°33' E 140°01'0 0.0
2015-May-21 15:34N 35°33' E 140°01'0 0.0
2015-May-21 14:33N 35°33' E 140°01'0 0.0
2015-May-21 13:33N 35°33' E 140°01'0 0.0
2015-May-21 12:34N 35°33' E 140°01'0 0.0
2015-May-21 11:33N 35°33' E 140°01'0 0.0
2015-May-21 10:32N 35°33' E 140°01'8 8.5
2015-May-21 09:33N 35°29' E 139°52'1212.2
2015-May-21 08:33N 35°18' E 139°45'1212.4
2015-May-21 07:33N 35°06' E 139°45'3213.8
2015-May-21 05:13N 34°46' E 139°14'  

Dump ship's entire track history